Time;durP1;ratioP1;P1;durP2;ratioP2;P2;SDS_P1;SDS_P2;PMS_P1;PMS_P2;Temp;Humidity;BMP_temperature;BMP_pressure;BME280_temperature;BME280_humidity;BME280_pressure;Samples;Min_cycle;Max_cycle;Signal;HPM_P1;HPM_P2
2022/10/18 00:01:36;;;;;;;223.00;23.98;;;13.00;99.90;;;;;;5138364;27;20060;-76
2022/10/18 00:04:01;;;;;;;154.75;22.02;;;13.10;99.90;;;;;;5137873;27;20047;-74
2022/10/18 00:06:27;;;;;;;122.15;21.10;;;13.10;99.90;;;;;;5104137;27;20055;-79
2022/10/18 00:08:53;;;;;;;165.43;22.25;;;13.10;99.90;;;;;;5136736;27;20121;-74
2022/10/18 00:11:18;;;;;;;134.48;21.27;;;13.10;99.90;;;;;;5155488;27;20494;-74
2022/10/18 00:13:44;;;;;;;533.20;35.75;;;13.10;99.90;;;;;;5137396;27;20046;-74
2022/10/18 00:16:15;;;;;;;135.73;21.08;;;13.10;99.90;;;;;;5137246;27;20046;-81
2022/10/18 00:18:41;;;;;;;139.27;22.70;;;13.10;99.90;;;;;;5155787;27;20045;-75
2022/10/18 00:21:12;;;;;;;122.60;22.27;;;13.10;99.90;;;;;;5156112;27;20050;-76
2022/10/18 00:23:39;;;;;;;229.43;25.85;;;13.10;99.90;;;;;;5137564;27;20050;-75
2022/10/18 00:26:29;;;;;;;347.70;29.63;;;13.10;99.90;;;;;;5155572;27;20095;-75
2022/10/18 00:29:00;;;;;;;127.22;21.90;;;13.10;99.90;;;;;;5136686;27;20053;-74
2022/10/18 00:31:36;;;;;;;141.30;20.27;;;13.00;99.90;;;;;;5156231;27;20475;-74
2022/10/18 00:34:06;;;;;;;121.37;20.17;;;13.00;99.90;;;;;;5120039;27;20050;-75
2022/10/18 00:36:35;;;;;;;143.05;21.02;;;13.10;99.90;;;;;;5136827;27;20272;-73
2022/10/18 00:39:03;;;;;;;148.00;21.45;;;13.00;99.90;;;;;;5155124;27;20053;-74
2022/10/18 00:41:31;;;;;;;171.25;21.80;;;13.00;99.90;;;;;;5137362;27;20043;-81
2022/10/18 00:43:59;;;;;;;129.80;21.20;;;13.00;99.90;;;;;;5136734;27;20046;-74
2022/10/18 00:46:27;;;;;;;135.30;20.95;;;13.00;99.90;;;;;;5155577;27;20057;-78
2022/10/18 00:48:55;;;;;;;150.18;22.00;;;13.00;99.90;;;;;;5155709;27;20052;-75
2022/10/18 00:51:23;;;;;;;248.77;24.75;;;13.00;99.90;;;;;;5138073;27;20512;-77
2022/10/18 00:53:49;;;;;;;162.90;21.67;;;13.00;99.90;;;;;;5121872;27;20386;-75
2022/10/18 00:56:16;;;;;;;241.88;23.70;;;13.00;99.90;;;;;;5140481;27;20051;-81
2022/10/18 00:58:43;;;;;;;174.93;23.02;;;13.00;99.90;;;;;;5158568;27;20137;-75
2022/10/18 01:01:08;;;;;;;190.85;22.42;;;13.00;99.90;;;;;;5141031;27;20069;-76
2022/10/18 01:03:36;;;;;;;183.48;22.27;;;13.00;99.90;;;;;;5160852;27;20431;-75
2022/10/18 01:06:01;;;;;;;;;;;13.00;99.90;;;;;;5157426;27;20047;-76
2022/10/18 01:09:10;;;;;;;107.00;19.90;;;13.00;99.90;;;;;;5136274;27;20259;-75
2022/10/18 01:12:19;;;;;;;104.60;20.10;;;12.90;99.90;;;;;;5114577;27;20497;-76
2022/10/18 01:15:01;;;;;;;184.90;22.77;;;12.90;99.90;;;;;;5050464;28;20041;-75
2022/10/18 01:17:54;;;;;;;90.13;19.55;;;12.90;99.90;;;;;;5051058;28;20201;-77
2022/10/18 01:20:42;;;;;;;80.97;20.35;;;12.90;99.90;;;;;;5116589;27;20526;-79
2022/10/18 01:23:15;;;;;;;96.22;21.42;;;12.90;99.90;;;;;;5108697;27;20047;-75
2022/10/18 01:25:50;;;;;;;85.05;20.17;;;12.80;99.90;;;;;;5168421;27;20066;-75
2022/10/18 01:28:28;;;;;;;84.88;21.08;;;12.90;99.90;;;;;;5149837;27;20110;-75
2022/10/18 01:30:59;;;;;;;74.53;21.48;;;12.80;99.90;;;;;;5165197;27;20042;-76
2022/10/18 01:33:38;;;;;;;79.32;21.30;;;12.90;99.90;;;;;;5156502;27;20537;-75
2022/10/18 01:36:17;;;;;;;93.22;23.25;;;12.90;99.90;;;;;;5154920;27;20367;-77
2022/10/18 01:38:45;;;;;;;89.47;21.63;;;12.80;99.90;;;;;;5154791;27;20458;-76
2022/10/18 01:41:13;;;;;;;474.75;35.92;;;12.80;99.90;;;;;;5154560;27;20065;-75
2022/10/18 01:43:39;;;;;;;189.18;25.38;;;12.80;99.90;;;;;;5155018;27;20127;-75
2022/10/18 01:46:07;;;;;;;102.05;21.90;;;12.80;99.90;;;;;;5136921;27;20061;-75
2022/10/18 01:48:36;;;;;;;123.43;23.05;;;12.80;99.90;;;;;;5154528;27;20114;-75
2022/10/18 01:51:03;;;;;;;144.32;24.08;;;12.70;99.90;;;;;;5119450;27;20390;-75
2022/10/18 01:53:33;;;;;;;106.63;23.25;;;12.80;99.90;;;;;;5155098;27;20130;-76
2022/10/18 01:56:19;;;;;;;88.97;21.55;;;12.80;99.90;;;;;;5154695;27;20367;-76
2022/10/18 01:58:48;;;;;;;96.63;22.70;;;12.70;99.90;;;;;;5154357;27;20482;-76
2022/10/18 02:01:28;;;;;;;94.82;22.95;;;12.80;99.90;;;;;;5154579;27;20147;-76
2022/10/18 02:04:00;;;;;;;74.43;21.25;;;12.70;99.90;;;;;;5154279;27;20058;-76
2022/10/18 02:06:31;;;;;;;122.20;23.50;;;12.80;99.90;;;;;;5154158;27;20042;-75
2022/10/18 02:08:59;;;;;;;97.13;22.83;;;12.70;99.90;;;;;;5154965;27;20054;-78
2022/10/18 02:11:28;;;;;;;186.45;26.90;;;12.70;99.90;;;;;;5154372;27;20141;-79
2022/10/18 02:13:58;;;;;;;107.00;22.80;;;12.70;99.90;;;;;;5118617;27;20082;-76
2022/10/18 02:16:39;;;;;;;378.27;32.88;;;12.70;99.90;;;;;;5135871;27;20035;-83
2022/10/18 02:19:14;;;;;;;92.60;22.60;;;12.70;99.90;;;;;;5135382;27;20081;-75
2022/10/18 02:21:44;;;;;;;202.07;25.27;;;12.70;99.90;;;;;;5153935;27;20115;-76
2022/10/18 02:24:12;;;;;;;385.38;32.42;;;12.70;99.90;;;;;;5154155;27;20122;-76
2022/10/18 02:26:38;;;;;;;435.52;34.08;;;12.70;99.90;;;;;;5154030;27;20126;-79
2022/10/18 02:29:04;;;;;;;376.98;32.22;;;12.70;99.90;;;;;;5135684;27;20072;-75
2022/10/18 02:31:35;;;;;;;104.90;22.30;;;12.70;99.90;;;;;;5135988;27;20050;-79
2022/10/18 02:34:17;;;;;;;246.75;27.92;;;12.70;99.90;;;;;;5136322;27;20087;-76
2022/10/18 02:37:10;;;;;;;114.63;21.67;;;12.60;99.90;;;;;;5157988;27;20342;-76
2022/10/18 02:39:43;;;;;;;120.47;22.08;;;12.60;99.90;;;;;;5153616;27;20051;-75
2022/10/18 02:42:10;;;;;;;86.20;20.23;;;12.60;99.90;;;;;;5122475;27;20042;-75
2022/10/18 02:44:37;;;;;;;284.00;27.92;;;12.60;99.90;;;;;;5157677;27;20039;-77
2022/10/18 02:47:04;;;;;;;374.00;30.85;;;12.60;99.90;;;;;;5157509;27;20087;-77
2022/10/18 02:49:30;;;;;;;93.85;20.50;;;12.60;99.90;;;;;;5122464;27;20051;-79
2022/10/18 02:51:56;;;;;;;268.13;28.67;;;12.60;99.90;;;;;;5157807;27;20051;-78
2022/10/18 02:54:22;;;;;;;337.17;29.98;;;12.60;99.90;;;;;;5122640;27;20118;-76
2022/10/18 02:56:48;;;;;;;122.60;22.80;;;12.60;99.90;;;;;;5105387;27;20103;-76
2022/10/18 02:59:14;;;;;;;135.45;23.20;;;12.60;99.90;;;;;;5139014;27;20038;-77
2022/10/18 03:01:40;;;;;;;263.17;26.83;;;12.60;99.90;;;;;;5157993;27;20049;-77
2022/10/18 03:04:05;;;;;;;73.97;20.48;;;12.50;99.90;;;;;;5157351;27;20047;-77
2022/10/18 03:06:32;;;;;;;121.07;23.52;;;12.60;99.90;;;;;;5139133;27;20129;-78
2022/10/18 03:08:58;;;;;;;103.82;21.65;;;12.60;99.90;;;;;;5157457;27;20107;-77
2022/10/18 03:11:24;;;;;;;86.05;20.25;;;12.50;99.90;;;;;;5138971;27;20043;-76
2022/10/18 03:13:50;;;;;;;114.95;20.63;;;12.50;99.90;;;;;;5157767;27;20042;-77
2022/10/18 03:16:16;;;;;;;292.88;27.95;;;12.60;99.90;;;;;;5122128;27;20038;-77
2022/10/18 03:18:42;;;;;;;121.57;20.77;;;12.50;99.90;;;;;;5138897;27;20042;-77
2022/10/18 03:21:08;;;;;;;120.43;20.45;;;12.50;99.90;;;;;;5157963;27;20062;-77
2022/10/18 03:23:34;;;;;;;205.18;24.55;;;12.50;99.90;;;;;;5157087;27;20138;-78
2022/10/18 03:26:00;;;;;;;170.73;21.92;;;12.50;99.90;;;;;;5138857;27;20200;-77
2022/10/18 03:28:26;;;;;;;440.27;33.72;;;12.50;99.90;;;;;;5137863;27;20045;-76
2022/10/18 03:30:51;;;;;;;123.80;21.20;;;12.50;99.90;;;;;;5156895;27;20026;-76
2022/10/18 03:33:17;;;;;;;122.05;20.55;;;12.50;99.90;;;;;;5156802;27;20050;-76
2022/10/18 03:35:43;;;;;;;127.82;20.80;;;12.40;99.90;;;;;;5157011;27;20047;-76
2022/10/18 03:38:08;;;;;;;107.32;20.75;;;12.40;99.90;;;;;;5120825;27;20389;-76
2022/10/18 03:40:34;;;;;;;122.20;21.48;;;12.40;99.90;;;;;;5156612;27;20034;-77
2022/10/18 03:43:00;;;;;;;127.57;21.30;;;12.40;99.90;;;;;;5137298;27;20046;-76
2022/10/18 03:45:26;;;;;;;83.53;18.60;;;12.40;99.90;;;;;;5137703;27;20047;-76
2022/10/18 03:47:51;;;;;;;80.72;18.73;;;12.40;99.90;;;;;;5156974;27;20074;-76
2022/10/18 03:50:18;;;;;;;103.50;19.42;;;12.40;99.90;;;;;;5138851;27;20039;-77
2022/10/18 03:52:44;;;;;;;114.30;20.33;;;12.30;99.90;;;;;;5139307;27;20099;-77
2022/10/18 03:55:09;;;;;;;258.13;25.52;;;12.30;99.90;;;;;;5123017;27;20050;-77
2022/10/18 03:57:35;;;;;;;206.10;24.90;;;12.30;99.90;;;;;;5141230;27;20046;-77
2022/10/18 04:00:01;;;;;;;313.45;27.52;;;12.30;99.90;;;;;;5161242;27;20054;-76
2022/10/18 04:02:26;;;;;;;80.65;19.27;;;12.20;99.90;;;;;;5139589;27;20043;-78
2022/10/18 04:04:52;;;;;;;69.63;17.77;;;12.20;99.90;;;;;;5155916;27;20397;-76
2022/10/18 04:07:18;;;;;;;64.15;17.63;;;12.20;99.90;;;;;;5156260;27;20091;-76
2022/10/18 04:09:43;;;;;;;157.02;22.13;;;12.20;99.90;;;;;;5138206;27;20039;-77
2022/10/18 04:12:09;;;;;;;140.52;22.80;;;12.20;99.90;;;;;;5156079;27;20050;-77
2022/10/18 04:14:35;;;;;;;92.65;19.23;;;12.20;99.90;;;;;;5137129;27;20095;-81
2022/10/18 04:17:01;;;;;;;144.85;20.15;;;12.20;99.90;;;;;;5137149;27;20049;-77
2022/10/18 04:19:27;;;;;;;111.28;19.58;;;12.20;99.90;;;;;;5137019;27;20069;-76
2022/10/18 04:21:53;;;;;;;173.40;21.05;;;12.20;99.90;;;;;;5162174;27;20129;-76
2022/10/18 04:24:19;;;;;;;220.10;22.60;;;12.20;99.90;;;;;;5165197;27;20107;-75
2022/10/18 04:26:45;;;;;;;157.93;20.80;;;12.20;99.90;;;;;;5172261;27;20398;-76
2022/10/18 04:29:10;;;;;;;243.00;24.85;;;12.20;99.90;;;;;;5165022;27;20050;-77
2022/10/18 04:31:36;;;;;;;151.93;21.05;;;12.20;99.90;;;;;;5156431;27;20042;-83
2022/10/18 04:34:03;;;;;;;130.63;20.00;;;12.20;99.90;;;;;;5137196;27;20078;-76
2022/10/18 04:36:29;;;;;;;132.95;19.27;;;12.20;99.90;;;;;;5137082;27;20442;-82
2022/10/18 04:38:55;;;;;;;159.88;19.73;;;12.20;99.90;;;;;;5137080;27;20038;-76
2022/10/18 04:41:21;;;;;;;192.35;21.73;;;12.20;99.90;;;;;;5137073;27;20088;-78
2022/10/18 04:43:46;;;;;;;179.27;21.73;;;12.30;99.90;;;;;;5137099;27;20046;-79
2022/10/18 04:46:12;;;;;;;230.07;22.67;;;12.20;99.90;;;;;;5136688;27;20039;-78
2022/10/18 04:48:38;;;;;;;221.05;23.92;;;12.20;99.90;;;;;;5155201;27;20114;-83
2022/10/18 04:51:04;;;;;;;328.15;28.60;;;12.20;99.90;;;;;;5154910;27;20047;-77
2022/10/18 04:53:30;;;;;;;402.75;30.50;;;12.20;99.90;;;;;;5119674;27;20056;-77
2022/10/18 04:55:56;;;;;;;427.75;30.35;;;12.10;99.90;;;;;;5155191;27;20130;-75
2022/10/18 04:58:21;;;;;;;367.05;28.23;;;12.10;99.90;;;;;;5136967;27;20042;-76
2022/10/18 05:00:47;;;;;;;156.95;21.25;;;12.10;99.90;;;;;;5136668;27;20081;-76
2022/10/18 05:03:14;;;;;;;105.90;19.35;;;12.10;99.90;;;;;;5136991;27;20051;-74
2022/10/18 05:05:40;;;;;;;110.22;18.95;;;12.10;99.90;;;;;;5154067;27;20446;-81
2022/10/18 05:08:06;;;;;;;181.02;22.70;;;12.10;99.90;;;;;;5154933;27;20046;-76
2022/10/18 05:10:32;;;;;;;87.10;18.40;;;12.10;99.90;;;;;;5136314;27;20043;-75
2022/10/18 05:12:58;;;;;;;97.25;19.00;;;12.10;99.90;;;;;;5154131;27;20058;-75
2022/10/18 05:15:23;;;;;;;97.10;19.40;;;12.10;99.90;;;;;;5137700;27;20057;-76
2022/10/18 05:17:49;;;;;;;201.15;23.20;;;12.10;99.90;;;;;;5137232;27;20059;-75
2022/10/18 05:20:15;;;;;;;150.10;20.90;;;12.10;99.90;;;;;;5154132;27;20050;-78
2022/10/18 05:22:41;;;;;;;125.35;20.52;;;12.10;99.90;;;;;;5154223;27;20057;-80
2022/10/18 05:25:07;;;;;;;123.28;19.73;;;12.10;99.90;;;;;;5136125;27;20042;-75
2022/10/18 05:27:33;;;;;;;133.83;20.37;;;12.10;99.90;;;;;;5135915;27;20046;-74
2022/10/18 05:29:58;;;;;;;138.90;21.27;;;12.10;99.90;;;;;;5135943;27;20447;-76
2022/10/18 05:32:24;;;;;;;81.68;18.13;;;12.10;99.90;;;;;;5136335;27;20085;-75
2022/10/18 05:34:50;;;;;;;113.10;20.13;;;12.20;99.90;;;;;;5136056;27;20464;-75
2022/10/18 05:37:16;;;;;;;101.43;19.30;;;12.20;99.90;;;;;;5154395;27;20119;-75
2022/10/18 05:39:41;;;;;;;67.93;17.30;;;12.20;99.90;;;;;;5154118;27;20053;-75
2022/10/18 05:42:07;;;;;;;77.47;17.42;;;12.20;99.90;;;;;;5118658;27;20074;-80
2022/10/18 05:44:33;;;;;;;196.63;22.05;;;12.20;99.90;;;;;;5154270;27;20045;-75
2022/10/18 05:46:59;;;;;;;122.13;19.67;;;12.20;99.90;;;;;;5154470;27;20482;-75
2022/10/18 05:49:24;;;;;;;208.68;22.70;;;12.20;99.90;;;;;;5135901;27;20443;-75
2022/10/18 05:51:50;;;;;;;130.90;18.45;;;12.20;99.90;;;;;;5154728;27;20423;-75
2022/10/18 05:54:16;;;;;;;87.00;17.15;;;12.20;99.90;;;;;;5134458;27;20112;-75
2022/10/18 05:56:42;;;;;;;133.30;19.27;;;12.20;99.90;;;;;;5154106;27;20035;-75
2022/10/18 05:59:10;;;;;;;206.02;22.70;;;12.20;99.90;;;;;;5135567;27;20034;-74
2022/10/18 06:01:41;;;;;;;78.05;17.98;;;12.20;99.90;;;;;;5135629;27;20134;-74
2022/10/18 06:04:09;;;;;;;73.85;16.13;;;12.10;99.90;;;;;;5118882;27;20119;-75
2022/10/18 06:06:35;;;;;;;119.72;18.20;;;12.10;99.90;;;;;;5135650;27;20043;-77
2022/10/18 06:09:02;;;;;;;242.70;21.08;;;12.10;99.90;;;;;;5119379;27;20043;-75
2022/10/18 06:11:29;;;;;;;108.00;16.90;;;12.10;99.90;;;;;;5158004;27;20524;-85
2022/10/18 06:13:56;;;;;;;304.92;23.25;;;12.10;99.90;;;;;;5158294;27;20046;-75
2022/10/18 06:16:23;;;;;;;127.68;16.02;;;12.10;99.90;;;;;;5158403;27;20046;-76
2022/10/18 06:18:51;;;;;;;186.57;18.80;;;12.10;99.90;;;;;;5157798;27;20047;-75
2022/10/18 06:21:18;;;;;;;60.55;13.45;;;12.10;99.90;;;;;;5158105;27;20062;-75
2022/10/18 06:23:48;;;;;;;79.55;15.25;;;12.10;99.90;;;;;;5157632;27;20515;-75
2022/10/18 06:26:13;;;;;;;83.85;15.18;;;12.10;99.90;;;;;;5157916;27;20050;-75
2022/10/18 06:28:39;;;;;;;59.58;13.85;;;12.10;99.90;;;;;;5158025;27;20394;-75
2022/10/18 06:31:05;;;;;;;102.03;15.88;;;12.10;99.90;;;;;;5157935;27;20050;-75
2022/10/18 06:33:32;;;;;;;96.27;13.57;;;12.10;99.90;;;;;;5140427;27;20137;-75
2022/10/18 06:36:00;;;;;;;117.85;13.88;;;12.10;99.90;;;;;;5139268;27;20079;-75
2022/10/18 06:38:27;;;;;;;285.70;21.38;;;12.00;99.90;;;;;;5139540;27;20049;-76
2022/10/18 06:40:54;;;;;;;115.30;14.80;;;12.00;99.90;;;;;;5122030;27;20102;-76
2022/10/18 06:43:20;;;;;;;203.00;17.45;;;12.00;99.90;;;;;;5157288;27;20498;-77
2022/10/18 06:45:46;;;;;;;95.22;13.68;;;11.90;99.90;;;;;;5139487;27;20046;-74
2022/10/18 06:48:12;;;;;;;189.35;16.35;;;11.90;99.90;;;;;;5139383;27;20129;-76
2022/10/18 06:50:37;;;;;;;217.38;16.70;;;11.90;99.90;;;;;;5157796;27;20042;-75
2022/10/18 06:53:05;;;;;;;121.82;13.27;;;11.90;99.90;;;;;;5158297;27;20375;-76
2022/10/18 06:55:31;;;;;;;135.85;13.50;;;11.90;99.90;;;;;;5139886;27;20073;-74
2022/10/18 06:57:56;;;;;;;98.90;11.80;;;11.80;99.90;;;;;;5139464;27;20050;-76
2022/10/18 07:00:22;;;;;;;111.28;11.63;;;11.80;99.90;;;;;;5139009;27;20050;-74
2022/10/18 07:02:48;;;;;;;92.88;10.95;;;11.80;99.90;;;;;;5157497;27;20135;-75
2022/10/18 07:05:14;;;;;;;181.88;14.45;;;11.80;99.90;;;;;;5122333;27;20129;-75
2022/10/18 07:07:40;;;;;;;111.40;11.07;;;11.70;99.90;;;;;;5139197;27;20054;-75
2022/10/18 07:10:06;;;;;;;108.35;10.85;;;11.80;99.90;;;;;;5157996;27;20035;-78
2022/10/18 07:12:32;;;;;;;310.30;19.08;;;11.80;99.90;;;;;;5157423;27;20355;-74
2022/10/18 07:14:58;;;;;;;163.45;14.18;;;11.70;99.90;;;;;;5157795;27;20043;-77
2022/10/18 07:17:24;;;;;;;95.88;10.38;;;11.70;99.90;;;;;;5121646;27;20093;-74
2022/10/18 07:19:50;;;;;;;168.23;13.37;;;11.70;99.90;;;;;;5159364;27;20061;-74
2022/10/18 07:22:16;;;;;;;70.43;10.07;;;11.70;99.90;;;;;;5165184;27;20287;-75
2022/10/18 07:24:42;;;;;;;164.43;14.13;;;11.70;99.90;;;;;;5170999;27;20039;-76
2022/10/18 07:27:07;;;;;;;146.88;14.02;;;11.70;99.90;;;;;;5169663;27;20043;-76
2022/10/18 07:29:36;;;;;;;79.20;11.48;;;11.70;99.90;;;;;;5141427;27;20426;-76
2022/10/18 07:32:03;;;;;;;121.28;12.70;;;11.70;99.90;;;;;;5158103;27;20106;-78
2022/10/18 07:34:28;;;;;;;77.93;11.25;;;11.80;99.90;;;;;;5158026;27;20053;-75
2022/10/18 07:36:54;;;;;;;197.55;14.68;;;11.80;99.90;;;;;;5138797;27;20039;-75
2022/10/18 07:39:20;;;;;;;94.72;10.75;;;11.70;99.90;;;;;;5138667;27;20522;-75
2022/10/18 07:41:46;;;;;;;215.10;14.57;;;11.80;99.90;;;;;;5138623;27;20367;-75
2022/10/18 07:44:12;;;;;;;81.57;10.38;;;11.90;99.90;;;;;;5121379;27;20102;-75
2022/10/18 07:46:37;;;;;;;145.95;13.23;;;11.90;99.90;;;;;;5139241;27;20142;-75
2022/10/18 07:49:03;;;;;;;76.50;9.90;;;11.80;99.90;;;;;;5104651;27;20046;-74
2022/10/18 07:51:31;;;;;;;84.18;10.95;;;12.00;99.90;;;;;;5139522;27;20222;-76
2022/10/18 07:53:58;;;;;;;65.75;10.25;;;12.00;99.90;;;;;;5158847;27;20047;-75
2022/10/18 07:56:24;;;;;;;67.60;10.38;;;12.00;99.90;;;;;;5141086;27;20445;-74
2022/10/18 07:58:52;;;;;;;100.03;13.20;;;12.10;99.90;;;;;;5159701;27;20043;-77
2022/10/18 08:01:19;;;;;;;59.15;10.45;;;12.10;99.90;;;;;;5145523;27;20042;-75
2022/10/18 08:03:45;;;;;;;;;;;12.00;99.90;;;;;;5143259;27;20081;-76
2022/10/18 08:06:13;;;;;;;96.27;11.17;;;12.20;99.90;;;;;;5160346;27;20304;-77
2022/10/18 08:08:45;;;;;;;83.13;10.98;;;12.20;99.90;;;;;;5123655;27;20639;-75
2022/10/18 08:11:23;;;;;;;134.95;12.20;;;12.30;99.90;;;;;;5157511;27;20038;-74
2022/10/18 08:13:49;;;;;;;126.80;12.55;;;12.40;99.90;;;;;;5156524;27;20047;-75
2022/10/18 08:16:18;;;;;;;139.87;13.37;;;12.40;99.90;;;;;;5137814;27;20049;-74
2022/10/18 08:18:44;;;;;;;119.47;12.40;;;12.50;99.90;;;;;;5137673;27;20042;-76
2022/10/18 08:21:11;;;;;;;92.43;11.45;;;12.60;99.90;;;;;;5120411;27;20061;-75
2022/10/18 08:23:38;;;;;;;152.40;12.13;;;12.60;99.90;;;;;;5139678;27;20058;-75
2022/10/18 08:26:06;;;;;;;68.80;10.93;;;12.70;99.90;;;;;;5160111;27;20066;-77
2022/10/18 08:28:35;;;;;;;95.80;10.60;;;12.70;99.90;;;;;;5161266;27;20082;-76
2022/10/18 08:31:03;;;;;;;63.63;10.23;;;12.70;99.90;;;;;;5143319;27;20046;-76
2022/10/18 08:33:28;;;;;;;42.25;10.23;;;12.70;99.90;;;;;;5142769;27;20066;-80
2022/10/18 08:35:58;;;;;;;52.78;10.02;;;12.70;99.90;;;;;;5160666;27;20042;-77
2022/10/18 08:38:24;;;;;;;50.00;11.30;;;12.80;99.90;;;;;;5161757;27;20046;-77
2022/10/18 08:40:50;;;;;;;108.13;12.43;;;12.70;99.90;;;;;;5125179;27;20042;-77
2022/10/18 08:43:35;;;;;;;48.53;10.15;;;12.70;99.90;;;;;;5124901;27;20047;-76
2022/10/18 08:46:01;;;;;;;76.97;10.30;;;12.80;99.90;;;;;;5140908;27;20169;-76
2022/10/18 08:48:38;;;;;;;63.92;10.40;;;12.90;99.90;;;;;;5121626;27;20062;-78
2022/10/18 08:51:12;;;;;;;44.63;10.75;;;12.90;99.90;;;;;;5139554;27;20043;-82
2022/10/18 08:53:50;;;;;;;37.15;10.48;;;13.10;99.90;;;;;;5140841;27;20050;-78
2022/10/18 08:56:20;;;;;;;41.13;10.50;;;13.10;99.90;;;;;;5158488;27;20043;-80
2022/10/18 08:58:46;;;;;;;73.45;12.73;;;13.10;99.90;;;;;;5122670;27;20042;-78
2022/10/18 09:01:26;;;;;;;25.52;11.07;;;13.20;99.90;;;;;;5158396;27;20057;-78
2022/10/18 09:04:09;;;;;;;26.27;12.32;;;13.30;99.90;;;;;;5139257;27;20057;-77
2022/10/18 09:06:57;;;;;;;20.08;10.35;;;13.10;99.90;;;;;;5141264;27;20039;-77
2022/10/18 09:09:34;;;;;;;24.40;10.73;;;13.10;99.90;;;;;;5155988;27;20507;-77
2022/10/18 09:11:59;;;;;;;;;;;13.30;99.90;;;;;;5121130;27;20133;-78
2022/10/18 09:14:40;;;;;;;21.83;11.53;;;13.40;99.90;;;;;;5157301;27;20323;-79
2022/10/18 09:17:29;;;;;;;23.42;10.48;;;13.50;99.90;;;;;;5120865;27;20122;-76
2022/10/18 09:20:19;;;;;;;25.20;10.23;;;13.60;99.90;;;;;;5138133;27;20383;-76
2022/10/18 09:22:52;;;;;;;23.42;10.45;;;13.70;99.90;;;;;;5139382;27;20050;-78
2022/10/18 09:25:34;;;;;;;25.13;10.65;;;13.40;99.90;;;;;;5138983;27;20050;-80
2022/10/18 09:28:32;;;;;;;23.33;9.35;;;13.30;99.90;;;;;;5138626;27;20043;-77
2022/10/18 09:31:06;;;;;;;21.90;10.27;;;13.20;99.90;;;;;;5137120;27;20071;-75
2022/10/18 09:34:00;;;;;;;22.20;10.98;;;13.10;99.90;;;;;;5155775;27;20049;-76
2022/10/18 09:36:35;;;;;;;24.38;10.88;;;13.20;99.90;;;;;;5155824;27;20061;-79
2022/10/18 09:39:08;;;;;;;21.75;9.85;;;13.30;99.90;;;;;;5154801;27;20039;-78
2022/10/18 09:41:45;;;;;;;20.67;10.20;;;13.30;99.90;;;;;;5154509;27;20493;-76
2022/10/18 09:44:14;;;;;;;23.10;10.75;;;13.30;99.90;;;;;;5135714;27;20092;-76
2022/10/18 09:46:49;;;;;;;23.27;10.75;;;13.30;99.90;;;;;;5154761;27;20107;-76
2022/10/18 09:49:30;;;;;;;29.55;11.45;;;13.30;99.90;;;;;;5154528;27;20057;-74
2022/10/18 09:51:59;;;;;;;20.05;10.95;;;13.30;99.90;;;;;;5136189;27;20054;-79
2022/10/18 09:54:41;;;;;;;23.35;10.27;;;13.30;99.90;;;;;;5155323;27;20437;-76
2022/10/18 09:57:37;;;;;;;21.48;9.40;;;13.30;99.90;;;;;;5154235;27;20118;-75
2022/10/18 10:00:11;;;;;;;20.10;8.77;;;13.40;99.90;;;;;;5136329;27;20042;-76
2022/10/18 10:02:37;;;;;;;22.05;8.88;;;13.30;99.90;;;;;;5154940;27;20130;-78
2022/10/18 10:05:03;;;;;;;20.58;9.05;;;13.40;99.90;;;;;;5136719;27;20078;-74
2022/10/18 10:07:34;;;;;;;19.52;8.60;;;13.40;99.90;;;;;;5136848;27;20050;-75
2022/10/18 10:10:06;;;;;;;22.20;8.45;;;13.40;99.90;;;;;;5154877;27;20073;-75
2022/10/18 10:12:35;;;;;;;22.58;8.98;;;13.50;99.90;;;;;;5135919;27;20042;-74
2022/10/18 10:15:20;;;;;;;22.52;8.52;;;13.50;99.90;;;;;;5136323;27;20096;-75
2022/10/18 10:18:02;;;;;;;19.75;7.43;;;13.60;99.90;;;;;;5119317;27;20111;-77
2022/10/18 10:20:42;;;;;;;16.92;7.65;;;13.70;99.90;;;;;;5140736;27;20055;-78
2022/10/18 10:23:18;;;;;;;17.58;7.20;;;13.70;99.90;;;;;;5148084;27;20055;-77
2022/10/18 10:25:52;;;;;;;16.40;7.18;;;13.80;99.90;;;;;;5155525;27;20043;-77
2022/10/18 10:28:22;;;;;;;19.27;7.70;;;13.80;99.90;;;;;;5165493;27;20043;-79
2022/10/18 10:30:48;;;;;;;20.90;6.35;;;14.00;99.90;;;;;;5138771;27;20050;-77
2022/10/18 10:33:34;;;;;;;18.67;6.03;;;14.00;99.90;;;;;;5155470;27;20411;-77
2022/10/18 10:36:14;;;;;;;14.13;4.90;;;14.10;99.90;;;;;;5136364;27;20046;-78
2022/10/18 10:38:40;;;;;;;16.20;4.75;;;14.20;99.90;;;;;;5154838;27;20505;-77
2022/10/18 10:41:18;;;;;;;14.02;3.83;;;14.30;99.90;;;;;;5136391;27;20047;-79
2022/10/18 10:43:44;;;;;;;16.98;3.95;;;14.40;99.90;;;;;;5136569;27;20042;-77
2022/10/18 10:46:11;;;;;;;15.93;3.50;;;14.40;99.90;;;;;;5118536;27;20054;-76
2022/10/18 10:48:53;;;;;;;16.65;3.15;;;14.50;99.90;;;;;;5154251;27;20103;-73
2022/10/18 10:51:31;;;;;;;14.63;2.70;;;14.40;99.90;;;;;;5135747;27;20043;-77
2022/10/18 10:53:59;;;;;;;14.85;3.47;;;14.50;99.90;;;;;;5119221;27;20339;-75
2022/10/18 10:56:28;;;;;;;16.90;3.67;;;14.50;99.90;;;;;;5137945;27;20045;-76
2022/10/18 10:58:57;;;;;;;15.95;3.92;;;14.60;99.90;;;;;;5158193;27;20039;-77
2022/10/18 11:01:32;;;;;;;18.23;3.22;;;14.70;99.90;;;;;;5139057;27;20043;-79
2022/10/18 11:04:25;;;;;;;15.02;3.15;;;14.80;99.90;;;;;;5139068;27;20130;-75
2022/10/18 11:07:19;;;;;;;11.73;1.33;;;14.90;99.90;;;;;;5144490;27;20459;-75
2022/10/18 11:09:57;;;;;;;6.65;1.20;;;14.90;99.90;;;;;;5158601;27;20038;-78
2022/10/18 11:12:33;;;;;;;8.48;0.73;;;;;;;;;;5159905;27;20056;-79
2022/10/18 11:15:09;;;;;;;15.60;1.00;;;;;;;;;;5141073;27;20118;-78
2022/10/18 11:17:43;;;;;;;10.27;0.93;;;14.90;99.90;;;;;;5159713;27;20047;-79
2022/10/18 11:20:40;;;;;;;10.32;0.90;;;15.00;99.90;;;;;;5136856;27;20055;-77
2022/10/18 11:23:17;;;;;;;10.25;1.13;;;14.90;99.90;;;;;;5136366;27;20039;-77
2022/10/18 11:26:10;;;;;;;8.02;0.70;;;14.90;99.90;;;;;;5136203;27;20043;-76
2022/10/18 11:29:03;;;;;;;10.00;0.70;;;14.90;99.90;;;;;;5140178;27;20116;-78
2022/10/18 11:31:44;;;;;;;12.77;1.00;;;14.90;99.90;;;;;;5138307;27;20070;-76
2022/10/18 11:34:28;;;;;;;9.18;1.00;;;15.10;99.90;;;;;;5138118;27;20094;-75
2022/10/18 11:37:06;;;;;;;12.90;0.80;;;15.20;99.90;;;;;;5139210;27;20047;-76
2022/10/18 11:40:03;;;;;;;13.60;0.77;;;15.20;99.90;;;;;;5137282;27;20047;-76
2022/10/18 11:42:29;;;;;;;11.27;0.93;;;15.30;99.90;;;;;;5137475;27;20359;-76
2022/10/18 11:45:08;;;;;;;13.98;0.73;;;15.20;99.90;;;;;;5136169;27;20047;-73
2022/10/18 11:47:52;;;;;;;6.60;0.70;;;15.10;99.90;;;;;;5135630;27;20064;-77
2022/10/18 11:50:49;;;;;;;10.82;0.95;;;15.10;99.90;;;;;;5135551;27;20043;-77
2022/10/18 11:53:44;;;;;;;9.75;0.90;;;15.20;99.90;;;;;;5134774;27;20053;-74
2022/10/18 11:56:35;;;;;;;7.20;0.80;;;15.30;99.90;;;;;;5136951;27;20414;-76
2022/10/18 11:59:20;;;;;;;11.75;1.00;;;15.30;99.90;;;;;;5136700;27;20047;-75
2022/10/18 12:01:58;;;;;;;15.57;1.10;;;15.30;99.90;;;;;;5137337;27;20094;-74
2022/10/18 12:04:36;;;;;;;9.77;0.70;;;15.50;99.90;;;;;;5140264;27;20069;-77
2022/10/18 12:07:05;;;;;;;12.23;0.85;;;15.50;99.90;;;;;;5140123;27;20047;-73
2022/10/18 12:09:38;;;;;;;13.27;0.90;;;15.50;99.90;;;;;;5142926;27;20039;-77
2022/10/18 12:12:11;;;;;;;13.82;0.98;;;15.50;99.90;;;;;;5140591;27;20047;-77
2022/10/18 12:15:05;;;;;;;13.02;1.50;;;15.50;99.90;;;;;;5118123;27;20039;-76
2022/10/18 12:17:40;;;;;;;9.98;0.93;;;15.40;99.90;;;;;;5136184;27;20066;-76
2022/10/18 12:20:37;;;;;;;6.32;0.80;;;15.30;99.90;;;;;;5117005;27;20103;-76
2022/10/18 12:23:23;;;;;;;7.85;0.60;;;15.20;99.90;;;;;;5117694;27;20416;-74
2022/10/18 12:25:53;;;;;;;5.43;0.45;;;15.20;99.90;;;;;;5135262;27;20063;-75
2022/10/18 12:28:57;;;;;;;7.28;0.73;;;15.20;99.90;;;;;;5134870;27;20471;-76
2022/10/18 12:31:37;;;;;;;10.05;0.80;;;15.30;99.90;;;;;;5129212;27;20059;-78
2022/10/18 12:34:22;;;;;;;11.35;0.98;;;15.20;99.90;;;;;;5135861;27;20377;-76
2022/10/18 12:37:05;;;;;;;9.60;0.80;;;15.30;99.90;;;;;;5135708;27;20096;-79
2022/10/18 12:39:37;;;;;;;6.53;0.63;;;15.40;99.90;;;;;;5134620;27;20039;-79
2022/10/18 12:42:03;;;;;;;7.15;0.70;;;15.50;99.90;;;;;;5134199;27;20051;-78
2022/10/18 12:44:33;;;;;;;10.98;0.68;;;15.60;99.90;;;;;;5133787;27;20601;-77
2022/10/18 12:47:01;;;;;;;8.15;0.77;;;15.70;99.90;;;;;;5134926;27;20043;-77